createdAt,value
2022-10-26T00:01:12.750Z,100.00
2022-10-26T00:03:41.493Z,100.00
2022-10-26T00:06:20.325Z,100.00
2022-10-26T00:08:48.422Z,100.00
2022-10-26T00:11:16.268Z,100.00
2022-10-26T00:13:45.426Z,100.00
2022-10-26T00:16:22.693Z,100.00
2022-10-26T00:18:50.575Z,100.00
2022-10-26T00:21:18.045Z,100.00
2022-10-26T00:23:45.413Z,100.00
2022-10-26T00:26:12.982Z,100.00
2022-10-26T00:28:40.584Z,100.00
2022-10-26T00:31:12.374Z,100.00
2022-10-26T00:33:39.609Z,100.00
2022-10-26T00:36:09.545Z,100.00
2022-10-26T00:38:37.098Z,100.00
2022-10-26T00:41:04.452Z,100.00
2022-10-26T00:43:31.637Z,100.00
2022-10-26T00:46:00.214Z,100.00
2022-10-26T00:48:35.751Z,100.00
2022-10-26T00:51:08.697Z,100.00
2022-10-26T00:53:36.567Z,100.00
2022-10-26T00:56:04.486Z,100.00
2022-10-26T00:58:32.723Z,100.00
2022-10-26T01:00:59.807Z,100.00
2022-10-26T01:03:28.388Z,100.00
2022-10-26T01:05:58.454Z,100.00
2022-10-26T01:08:28.622Z,100.00
2022-10-26T01:10:58.626Z,100.00
2022-10-26T01:13:28.619Z,100.00
2022-10-26T01:16:14.474Z,100.00
2022-10-26T01:18:59.375Z,100.00
2022-10-26T01:21:39.819Z,100.00
2022-10-26T01:24:09.635Z,100.00
2022-10-26T01:27:04.576Z,100.00
2022-10-26T01:29:37.538Z,100.00
2022-10-26T01:32:24.853Z,100.00
2022-10-26T01:35:10.605Z,100.00
2022-10-26T01:37:44.695Z,100.00
2022-10-26T01:40:17.851Z,100.00
2022-10-26T01:42:52.253Z,100.00
2022-10-26T01:45:20.066Z,100.00
2022-10-26T01:47:48.870Z,100.00
2022-10-26T01:50:17.655Z,100.00
2022-10-26T01:52:44.777Z,100.00
2022-10-26T01:55:36.468Z,100.00
2022-10-26T01:58:26.375Z,100.00
2022-10-26T02:01:29.002Z,100.00
2022-10-26T02:04:09.621Z,100.00
2022-10-26T02:06:51.936Z,100.00
2022-10-26T02:09:43.709Z,100.00
2022-10-26T02:12:21.535Z,100.00
2022-10-26T02:15:05.497Z,100.00
2022-10-26T02:17:53.819Z,100.00
2022-10-26T02:20:36.626Z,100.00
2022-10-26T02:23:07.454Z,100.00
2022-10-26T02:25:41.384Z,100.00
2022-10-26T02:28:13.570Z,100.00
2022-10-26T02:30:44.435Z,100.00
2022-10-26T02:33:14.018Z,100.00
2022-10-26T02:35:43.649Z,100.00
2022-10-26T02:38:13.184Z,100.00
2022-10-26T02:40:42.183Z,100.00
2022-10-26T02:43:15.175Z,100.00
2022-10-26T02:45:51.589Z,100.00
2022-10-26T02:48:19.538Z,100.00
2022-10-26T02:51:01.577Z,100.00
2022-10-26T02:53:34.025Z,100.00
2022-10-26T02:56:09.334Z,100.00
2022-10-26T02:58:42.158Z,100.00
2022-10-26T03:01:09.428Z,100.00
2022-10-26T03:03:36.762Z,100.00
2022-10-26T03:06:04.137Z,100.00
2022-10-26T03:08:31.484Z,100.00
2022-10-26T03:10:58.894Z,100.00
2022-10-26T03:13:26.306Z,100.00
2022-10-26T03:15:57.844Z,100.00
2022-10-26T03:18:25.135Z,100.00
2022-10-26T03:20:52.379Z,100.00
2022-10-26T03:23:19.535Z,100.00
2022-10-26T03:25:46.726Z,100.00
2022-10-26T03:28:14.454Z,100.00
2022-10-26T03:30:41.644Z,100.00
2022-10-26T03:33:08.816Z,100.00
2022-10-26T03:35:35.926Z,100.00
2022-10-26T03:38:03.090Z,100.00
2022-10-26T03:40:30.238Z,100.00
2022-10-26T03:42:57.505Z,100.00
2022-10-26T03:45:24.614Z,100.00
2022-10-26T03:47:51.695Z,100.00
2022-10-26T03:50:21.013Z,100.00
2022-10-26T03:52:49.790Z,100.00
2022-10-26T03:55:17.686Z,100.00
2022-10-26T03:57:46.068Z,100.00
2022-10-26T04:00:15.774Z,100.00
2022-10-26T04:02:50.405Z,100.00
2022-10-26T04:05:17.724Z,100.00
2022-10-26T04:07:44.969Z,100.00
2022-10-26T04:10:12.184Z,100.00
2022-10-26T04:12:39.467Z,100.00
2022-10-26T04:15:07.635Z,100.00
2022-10-26T04:17:35.064Z,100.00
2022-10-26T04:20:02.336Z,100.00
2022-10-26T04:22:29.668Z,100.00
2022-10-26T04:24:57.016Z,100.00
2022-10-26T04:27:24.355Z,100.00
2022-10-26T04:29:51.578Z,100.00
2022-10-26T04:32:18.866Z,100.00
2022-10-26T04:34:45.975Z,100.00
2022-10-26T04:37:13.345Z,100.00
2022-10-26T04:39:40.493Z,100.00
2022-10-26T04:42:07.655Z,100.00
2022-10-26T04:44:34.825Z,100.00
2022-10-26T04:47:02.143Z,100.00
2022-10-26T04:49:29.465Z,100.00
2022-10-26T04:51:56.571Z,100.00
2022-10-26T04:54:23.808Z,100.00
2022-10-26T04:56:52.300Z,100.00
2022-10-26T04:59:19.736Z,100.00
2022-10-26T05:01:47.033Z,100.00
2022-10-26T05:04:14.579Z,100.00
2022-10-26T05:06:41.858Z,100.00
2022-10-26T05:09:09.147Z,100.00
2022-10-26T05:11:36.559Z,100.00
2022-10-26T05:14:03.860Z,100.00
2022-10-26T05:16:30.979Z,100.00
2022-10-26T05:18:58.303Z,100.00
2022-10-26T05:21:25.610Z,100.00
2022-10-26T05:23:55.637Z,100.00
2022-10-26T05:26:24.310Z,100.00
2022-10-26T05:28:52.495Z,100.00
2022-10-26T05:31:20.593Z,100.00
2022-10-26T05:33:51.618Z,100.00
2022-10-26T05:36:19.555Z,100.00
2022-10-26T05:38:47.466Z,100.00
2022-10-26T05:41:14.667Z,100.00
2022-10-26T05:43:42.014Z,100.00
2022-10-26T05:46:09.309Z,100.00
2022-10-26T05:48:36.714Z,100.00
2022-10-26T05:51:04.343Z,100.00
2022-10-26T05:53:31.618Z,100.00
2022-10-26T05:55:59.314Z,100.00
2022-10-26T05:58:27.088Z,100.00
2022-10-26T06:01:14.136Z,100.00
2022-10-26T06:04:12.120Z,100.00
2022-10-26T06:06:47.582Z,100.00
2022-10-26T06:09:15.608Z,100.00
2022-10-26T06:11:43.199Z,100.00
2022-10-26T06:14:10.888Z,100.00
2022-10-26T06:16:48.451Z,100.00
2022-10-26T06:19:47.558Z,100.00
2022-10-26T06:22:43.215Z,100.00
2022-10-26T06:25:28.745Z,100.00
2022-10-26T06:28:28.645Z,100.00
2022-10-26T06:30:57.732Z,100.00
2022-10-26T06:33:29.387Z,100.00
2022-10-26T06:36:04.803Z,100.00
2022-10-26T06:38:34.898Z,100.00
2022-10-26T06:41:02.505Z,100.00
2022-10-26T06:43:35.708Z,100.00
2022-10-26T06:46:26.502Z,100.00
2022-10-26T06:49:17.219Z,100.00
2022-10-26T06:51:57.924Z,100.00
2022-10-26T06:54:47.384Z,100.00
2022-10-26T06:57:16.425Z,100.00
2022-10-26T06:59:45.583Z,100.00
2022-10-26T07:02:14.925Z,100.00
2022-10-26T07:04:43.884Z,100.00
2022-10-26T07:07:22.709Z,100.00
2022-10-26T07:09:50.655Z,100.00
2022-10-26T07:12:17.985Z,100.00
2022-10-26T07:14:45.372Z,100.00
2022-10-26T07:17:12.704Z,100.00
2022-10-26T07:19:45.160Z,100.00
2022-10-26T07:22:12.950Z,100.00
2022-10-26T07:24:40.306Z,100.00
2022-10-26T07:27:07.475Z,100.00
2022-10-26T07:29:35.614Z,100.00
2022-10-26T07:32:03.135Z,100.00
2022-10-26T07:34:30.381Z,100.00
2022-10-26T07:36:59.939Z,100.00
2022-10-26T07:39:27.573Z,100.00
2022-10-26T07:41:54.819Z,100.00
2022-10-26T07:44:22.089Z,100.00
2022-10-26T07:46:49.443Z,100.00
2022-10-26T07:49:19.325Z,100.00
2022-10-26T07:51:46.894Z,100.00
2022-10-26T07:54:14.019Z,100.00
2022-10-26T07:56:41.347Z,100.00
2022-10-26T07:59:08.477Z,100.00
2022-10-26T08:01:36.099Z,100.00
2022-10-26T08:04:03.497Z,100.00
2022-10-26T08:06:30.574Z,100.00
2022-10-26T08:08:57.625Z,100.00
2022-10-26T08:11:24.968Z,100.00
2022-10-26T08:13:53.980Z,100.00
2022-10-26T08:16:22.067Z,100.00
2022-10-26T08:18:50.097Z,100.00
2022-10-26T08:21:25.989Z,100.00
2022-10-26T08:24:03.009Z,100.00
2022-10-26T08:26:30.894Z,99.73
2022-10-26T08:28:58.255Z,99.61
2022-10-26T08:31:25.580Z,100.00
2022-10-26T08:33:52.950Z,99.76
2022-10-26T08:36:27.894Z,100.00
2022-10-26T08:38:55.102Z,100.00
2022-10-26T08:41:40.455Z,100.00
2022-10-26T08:44:40.454Z,100.00
2022-10-26T08:49:52.415Z,100.00
2022-10-26T08:52:25.835Z,100.00
2022-10-26T08:54:57.134Z,100.00
2022-10-26T08:57:43.073Z,100.00
2022-10-26T09:00:18.477Z,100.00
2022-10-26T09:02:45.775Z,100.00
2022-10-26T09:05:17.777Z,100.00
2022-10-26T09:07:51.092Z,100.00
2022-10-26T09:13:02.101Z,100.00
2022-10-26T09:15:50.373Z,100.00
2022-10-26T09:18:17.620Z,100.00
2022-10-26T09:21:22.197Z,100.00
2022-10-26T09:24:07.735Z,100.00
2022-10-26T09:29:40.910Z,100.00
2022-10-26T09:32:17.445Z,100.00
2022-10-26T09:34:51.659Z,100.00
2022-10-26T09:37:26.828Z,100.00
2022-10-26T09:39:53.957Z,100.00
2022-10-26T09:42:29.594Z,100.00
2022-10-26T09:45:07.508Z,100.00
2022-10-26T09:47:43.384Z,100.00
2022-10-26T09:50:13.392Z,100.00
2022-10-26T09:52:40.818Z,100.00
2022-10-26T09:55:11.745Z,100.00
2022-10-26T09:57:42.788Z,100.00
2022-10-26T10:00:18.090Z,100.00
2022-10-26T10:02:49.324Z,100.00
2022-10-26T10:08:24.845Z,100.00
2022-10-26T10:10:59.821Z,100.00
2022-10-26T10:13:30.406Z,100.00
2022-10-26T10:16:06.216Z,100.00
2022-10-26T10:18:34.137Z,100.00
2022-10-26T10:21:02.064Z,100.00
2022-10-26T10:23:52.540Z,100.00
2022-10-26T10:26:19.983Z,100.00
2022-10-26T10:28:59.353Z,100.00
2022-10-26T10:31:32.500Z,100.00
2022-10-26T10:34:00.276Z,100.00
2022-10-26T10:36:30.633Z,100.00
2022-10-26T10:38:57.915Z,100.00
2022-10-26T10:41:36.859Z,100.00
2022-10-26T10:44:30.035Z,100.00
2022-10-26T10:47:06.503Z,100.00
2022-10-26T10:49:34.616Z,100.00
2022-10-26T10:52:01.939Z,100.00
2022-10-26T10:54:40.304Z,100.00
2022-10-26T10:57:40.301Z,100.00
2022-10-26T11:00:10.586Z,100.00
2022-10-26T11:02:56.594Z,100.00
2022-10-26T11:05:50.890Z,100.00
2022-10-26T11:08:28.075Z,100.00
2022-10-26T11:11:03.494Z,100.00
2022-10-26T11:13:35.254Z,100.00
2022-10-26T11:16:08.015Z,100.00
2022-10-26T11:18:44.775Z,99.99
2022-10-26T11:21:23.296Z,99.94
2022-10-26T11:23:57.763Z,100.00
2022-10-26T11:26:46.000Z,100.00
2022-10-26T11:29:35.021Z,99.61
2022-10-26T11:32:46.257Z,99.43
2022-10-26T11:35:33.654Z,99.41
2022-10-26T11:38:20.862Z,99.44
2022-10-26T11:41:34.297Z,99.79
2022-10-26T11:44:30.476Z,99.71
2022-10-26T11:47:03.247Z,99.08
2022-10-26T11:49:55.175Z,99.16
2022-10-26T11:52:48.001Z,98.98
2022-10-26T11:55:15.783Z,98.50
2022-10-26T11:57:43.494Z,98.98
2022-10-26T12:00:13.664Z,98.55
2022-10-26T12:05:22.413Z,98.39
2022-10-26T12:08:03.938Z,97.95
2022-10-26T12:10:34.933Z,97.97
2022-10-26T12:13:29.015Z,97.56
2022-10-26T12:16:07.334Z,97.35
2022-10-26T12:18:56.415Z,97.62
2022-10-26T12:21:30.377Z,96.93
2022-10-26T12:24:26.613Z,97.17
2022-10-26T12:26:59.226Z,96.99
2022-10-26T12:29:37.320Z,96.71
2022-10-26T12:32:25.335Z,96.61
2022-10-26T12:34:55.297Z,96.44
2022-10-26T12:37:32.143Z,96.25
2022-10-26T12:40:33.376Z,96.09
2022-10-26T12:43:16.146Z,95.89
2022-10-26T12:45:45.775Z,96.09
2022-10-26T12:48:38.827Z,95.70
2022-10-26T12:51:40.064Z,95.76
2022-10-26T12:54:25.698Z,95.68
2022-10-26T12:57:01.935Z,95.60
2022-10-26T12:59:56.695Z,95.79
2022-10-26T13:02:26.746Z,95.92
2022-10-26T13:05:08.586Z,96.06
2022-10-26T13:07:39.407Z,96.15
2022-10-26T13:10:27.377Z,96.28
2022-10-26T13:12:58.203Z,96.32
2022-10-26T13:15:31.401Z,96.54
2022-10-26T13:18:09.221Z,96.61
2022-10-26T13:20:52.548Z,96.50
2022-10-26T13:23:27.139Z,96.67
2022-10-26T13:26:13.220Z,96.94
2022-10-26T13:28:40.622Z,96.84
2022-10-26T13:31:33.908Z,97.34
2022-10-26T13:34:21.822Z,97.54
2022-10-26T13:37:03.816Z,96.97
2022-10-26T13:39:36.135Z,96.85
2022-10-26T13:42:05.860Z,97.29
2022-10-26T13:44:45.017Z,97.16
2022-10-26T13:47:22.444Z,96.92
2022-10-26T13:49:53.587Z,97.11
2022-10-26T13:52:33.506Z,96.65
2022-10-26T13:55:08.266Z,96.47
2022-10-26T13:57:40.859Z,97.00
2022-10-26T14:00:22.460Z,96.94
2022-10-26T14:02:50.190Z,97.34
2022-10-26T14:05:19.213Z,97.53
2022-10-26T14:07:54.098Z,98.44
2022-10-26T14:10:26.738Z,98.36
2022-10-26T14:12:54.855Z,98.80
2022-10-26T14:15:26.214Z,98.74
2022-10-26T14:17:55.702Z,99.09
2022-10-26T14:20:26.134Z,98.79
2022-10-26T14:22:53.535Z,99.00
2022-10-26T14:25:41.836Z,99.21
2022-10-26T14:28:28.405Z,99.44
2022-10-26T14:31:13.987Z,98.87
2022-10-26T14:33:43.765Z,98.90
2022-10-26T14:36:12.025Z,98.84
2022-10-26T14:38:45.545Z,99.02
2022-10-26T14:41:16.355Z,99.08
2022-10-26T14:43:45.300Z,98.99
2022-10-26T14:46:16.957Z,99.42
2022-10-26T14:49:04.734Z,99.50
2022-10-26T14:51:36.176Z,99.09
2022-10-26T14:54:05.039Z,99.11
2022-10-26T14:56:35.376Z,99.36
2022-10-26T14:59:31.989Z,99.54
2022-10-26T15:02:19.900Z,99.41
2022-10-26T15:05:05.226Z,99.60
2022-10-26T15:07:37.735Z,100.00
2022-10-26T15:10:06.187Z,99.97
2022-10-26T15:12:38.777Z,100.00
2022-10-26T15:17:55.107Z,100.00
2022-10-26T15:20:24.725Z,100.00
2022-10-26T15:22:54.807Z,100.00
2022-10-26T15:25:28.727Z,100.00
2022-10-26T15:28:09.866Z,100.00
2022-10-26T15:30:37.214Z,100.00
2022-10-26T15:33:20.554Z,100.00
2022-10-26T15:35:48.044Z,100.00
2022-10-26T15:38:15.336Z,100.00
2022-10-26T15:40:44.056Z,100.00
2022-10-26T15:43:11.824Z,100.00
2022-10-26T15:45:48.585Z,100.00
2022-10-26T15:48:30.134Z,100.00
2022-10-26T15:50:57.663Z,100.00
2022-10-26T15:53:30.808Z,100.00
2022-10-26T15:56:00.244Z,100.00
2022-10-26T15:58:30.025Z,100.00
2022-10-26T16:00:57.315Z,100.00
2022-10-26T16:03:26.605Z,100.00
2022-10-26T16:05:59.784Z,100.00
2022-10-26T16:08:29.934Z,100.00
2022-10-26T16:10:57.859Z,100.00
2022-10-26T16:13:25.065Z,100.00
2022-10-26T16:15:52.353Z,100.00
2022-10-26T16:18:19.646Z,100.00
2022-10-26T16:20:46.987Z,100.00
2022-10-26T16:23:14.557Z,100.00
2022-10-26T16:25:44.675Z,100.00
2022-10-26T16:28:14.574Z,100.00
2022-10-26T16:30:42.206Z,100.00
2022-10-26T16:33:09.555Z,100.00
2022-10-26T16:35:36.774Z,100.00
2022-10-26T16:38:04.138Z,100.00
2022-10-26T16:40:31.365Z,100.00
2022-10-26T16:42:58.498Z,100.00
2022-10-26T16:45:25.823Z,100.00
2022-10-26T16:47:53.598Z,100.00
2022-10-26T16:50:22.315Z,100.00
2022-10-26T16:52:49.519Z,100.00
2022-10-26T16:55:17.250Z,100.00
2022-10-26T16:57:44.474Z,100.00
2022-10-26T17:00:11.906Z,100.00
2022-10-26T17:02:40.451Z,100.00
2022-10-26T17:05:09.704Z,100.00
2022-10-26T17:07:36.896Z,100.00
2022-10-26T17:10:04.816Z,100.00
2022-10-26T17:12:32.308Z,100.00
2022-10-26T17:15:00.767Z,100.00
2022-10-26T17:17:27.948Z,100.00
2022-10-26T17:19:55.359Z,100.00
2022-10-26T17:22:22.677Z,100.00
2022-10-26T17:24:50.028Z,100.00
2022-10-26T17:27:17.657Z,100.00
2022-10-26T17:29:44.783Z,100.00
2022-10-26T17:32:12.092Z,100.00
2022-10-26T17:34:39.467Z,100.00
2022-10-26T17:37:06.817Z,100.00
2022-10-26T17:39:33.928Z,100.00
2022-10-26T17:42:01.035Z,100.00
2022-10-26T17:44:28.259Z,100.00
2022-10-26T17:46:55.711Z,100.00
2022-10-26T17:49:25.085Z,100.00
2022-10-26T17:51:54.259Z,100.00
2022-10-26T17:54:21.714Z,100.00
2022-10-26T17:56:48.947Z,100.00
2022-10-26T17:59:16.074Z,100.00
2022-10-26T18:01:43.873Z,100.00
2022-10-26T18:04:11.204Z,100.00
2022-10-26T18:06:38.538Z,100.00
2022-10-26T18:09:05.817Z,100.00
2022-10-26T18:11:33.109Z,100.00
2022-10-26T18:14:00.338Z,100.00
2022-10-26T18:16:28.376Z,100.00
2022-10-26T18:19:01.520Z,100.00
2022-10-26T18:21:30.648Z,100.00
2022-10-26T18:23:58.045Z,100.00
2022-10-26T18:26:29.134Z,100.00
2022-10-26T18:28:57.747Z,100.00
2022-10-26T18:31:26.587Z,100.00
2022-10-26T18:33:58.548Z,100.00
2022-10-26T18:36:27.558Z,100.00
2022-10-26T18:38:55.607Z,100.00
2022-10-26T18:41:24.253Z,100.00
2022-10-26T18:43:54.437Z,100.00
2022-10-26T18:46:24.544Z,100.00
2022-10-26T18:48:52.666Z,100.00
2022-10-26T18:51:22.893Z,100.00
2022-10-26T18:53:50.228Z,100.00
2022-10-26T18:56:20.148Z,100.00
2022-10-26T18:58:50.137Z,100.00
2022-10-26T19:01:28.506Z,100.00
2022-10-26T19:04:00.933Z,100.00
2022-10-26T19:06:30.860Z,100.00
2022-10-26T19:08:58.869Z,100.00
2022-10-26T19:11:27.953Z,100.00
2022-10-26T19:13:55.635Z,100.00
2022-10-26T19:16:45.284Z,100.00
2022-10-26T19:19:12.714Z,100.00
2022-10-26T19:21:39.914Z,100.00
2022-10-26T19:24:13.103Z,100.00
2022-10-26T19:26:43.520Z,100.00
2022-10-26T19:29:16.618Z,100.00
2022-10-26T19:31:45.951Z,100.00
2022-10-26T19:34:14.701Z,100.00
2022-10-26T19:36:45.467Z,100.00
2022-10-26T19:39:17.350Z,100.00
2022-10-26T19:41:45.925Z,100.00
2022-10-26T19:44:15.214Z,100.00
2022-10-26T19:46:43.908Z,100.00
2022-10-26T19:49:13.046Z,100.00
2022-10-26T19:51:40.593Z,100.00
2022-10-26T19:54:07.986Z,100.00
2022-10-26T19:56:36.972Z,100.00
2022-10-26T19:59:05.350Z,100.00
2022-10-26T20:01:32.995Z,100.00
2022-10-26T20:04:02.997Z,100.00
2022-10-26T20:06:31.258Z,100.00
2022-10-26T20:08:59.317Z,100.00
2022-10-26T20:11:26.654Z,100.00
2022-10-26T20:13:56.244Z,100.00
2022-10-26T20:16:24.133Z,100.00
2022-10-26T20:18:51.608Z,100.00
2022-10-26T20:21:18.820Z,100.00
2022-10-26T20:23:46.293Z,100.00
2022-10-26T20:26:19.654Z,100.00
2022-10-26T20:28:51.282Z,100.00
2022-10-26T20:31:18.973Z,100.00
2022-10-26T20:33:50.024Z,100.00
2022-10-26T20:36:17.097Z,100.00
2022-10-26T20:38:44.734Z,100.00
2022-10-26T20:41:15.016Z,100.00
2022-10-26T20:43:43.017Z,100.00
2022-10-26T20:46:23.493Z,100.00
2022-10-26T20:48:52.224Z,100.00
2022-10-26T20:51:34.329Z,100.00
2022-10-26T20:54:17.229Z,100.00
2022-10-26T20:56:45.758Z,100.00
2022-10-26T20:59:40.457Z,100.00
2022-10-26T21:02:10.568Z,100.00
2022-10-26T21:04:37.928Z,100.00
2022-10-26T21:07:05.148Z,100.00
2022-10-26T21:09:35.696Z,100.00
2022-10-26T21:12:04.584Z,100.00
2022-10-26T21:14:36.058Z,100.00
2022-10-26T21:17:03.249Z,100.00
2022-10-26T21:19:30.476Z,100.00
2022-10-26T21:21:57.662Z,100.00
2022-10-26T21:24:24.963Z,100.00
2022-10-26T21:26:52.841Z,100.00
2022-10-26T21:29:20.169Z,100.00
2022-10-26T21:31:47.536Z,100.00
2022-10-26T21:34:14.929Z,100.00
2022-10-26T21:36:42.085Z,100.00
2022-10-26T21:39:09.306Z,100.00
2022-10-26T21:41:38.104Z,100.00
2022-10-26T21:44:09.627Z,100.00
2022-10-26T21:46:43.328Z,100.00
2022-10-26T21:49:10.778Z,100.00
2022-10-26T21:51:38.239Z,100.00
2022-10-26T21:54:05.498Z,100.00
2022-10-26T21:56:32.631Z,100.00
2022-10-26T21:59:01.016Z,100.00
2022-10-26T22:01:28.288Z,100.00
2022-10-26T22:03:56.368Z,100.00
2022-10-26T22:06:23.639Z,100.00
2022-10-26T22:08:50.871Z,100.00
2022-10-26T22:11:21.417Z,100.00
2022-10-26T22:13:50.098Z,100.00
2022-10-26T22:16:22.361Z,100.00
2022-10-26T22:18:50.684Z,100.00
2022-10-26T22:21:19.360Z,100.00
2022-10-26T22:23:47.529Z,100.00
2022-10-26T22:26:20.512Z,100.00
2022-10-26T22:28:50.333Z,100.00
2022-10-26T22:31:27.580Z,100.00
2022-10-26T22:34:03.294Z,100.00
2022-10-26T22:36:33.819Z,100.00
2022-10-26T22:39:01.031Z,100.00
2022-10-26T22:41:28.111Z,100.00
2022-10-26T22:43:55.339Z,100.00
2022-10-26T22:46:27.683Z,100.00
2022-10-26T22:48:57.421Z,100.00
2022-10-26T22:51:26.560Z,100.00
2022-10-26T22:53:55.288Z,100.00
2022-10-26T22:56:24.077Z,100.00
2022-10-26T22:58:52.330Z,100.00
2022-10-26T23:01:25.484Z,100.00
2022-10-26T23:03:54.142Z,100.00
2022-10-26T23:06:21.873Z,100.00
2022-10-26T23:08:49.481Z,100.00
2022-10-26T23:11:19.011Z,100.00
2022-10-26T23:13:46.210Z,100.00
2022-10-26T23:16:20.803Z,100.00
2022-10-26T23:18:49.160Z,100.00
2022-10-26T23:21:17.436Z,100.00
2022-10-26T23:23:45.108Z,100.00
2022-10-26T23:26:14.805Z,100.00
2022-10-26T23:28:43.338Z,100.00
2022-10-26T23:31:23.018Z,100.00
2022-10-26T23:33:51.677Z,100.00
2022-10-26T23:36:19.583Z,100.00
2022-10-26T23:38:46.965Z,100.00
2022-10-26T23:41:14.879Z,100.00
2022-10-26T23:43:42.238Z,100.00
2022-10-26T23:46:09.453Z,100.00
2022-10-26T23:48:37.557Z,100.00
2022-10-26T23:51:05.206Z,100.00
2022-10-26T23:53:32.569Z,100.00
2022-10-26T23:55:59.901Z,100.00
2022-10-26T23:58:27.082Z,100.00
